sensor_id;sensor_type;location;lat;lon;timestamp;temperature;humidity
55313;DHT22;46892;45.668;11.756;2023-02-28T00:01:05;3.40;61.80
55313;DHT22;46892;45.668;11.756;2023-02-28T00:03:31;3.40;61.50
55313;DHT22;46892;45.668;11.756;2023-02-28T00:06:01;3.30;61.70
55313;DHT22;46892;45.668;11.756;2023-02-28T00:08:27;3.20;62.20
55313;DHT22;46892;45.668;11.756;2023-02-28T00:10:52;3.20;62.60
55313;DHT22;46892;45.668;11.756;2023-02-28T00:13:18;3.20;62.70
55313;DHT22;46892;45.668;11.756;2023-02-28T00:15:44;3.10;62.70
55313;DHT22;46892;45.668;11.756;2023-02-28T00:18:10;3.00;62.80
55313;DHT22;46892;45.668;11.756;2023-02-28T00:20:37;3.00;62.90
55313;DHT22;46892;45.668;11.756;2023-02-28T00:23:03;2.90;63.20
55313;DHT22;46892;45.668;11.756;2023-02-28T00:25:28;3.00;63.40
55313;DHT22;46892;45.668;11.756;2023-02-28T00:27:54;2.90;62.80
55313;DHT22;46892;45.668;11.756;2023-02-28T00:30:23;3.00;62.90
55313;DHT22;46892;45.668;11.756;2023-02-28T00:32:50;3.00;62.30
55313;DHT22;46892;45.668;11.756;2023-02-28T00:35:16;3.00;62.30
55313;DHT22;46892;45.668;11.756;2023-02-28T00:37:42;3.00;62.10
55313;DHT22;46892;45.668;11.756;2023-02-28T00:40:09;3.10;62.10
55313;DHT22;46892;45.668;11.756;2023-02-28T00:42:35;3.00;62.20
55313;DHT22;46892;45.668;11.756;2023-02-28T00:45:02;3.00;62.80
55313;DHT22;46892;45.668;11.756;2023-02-28T00:47:29;3.00;63.30
55313;DHT22;46892;45.668;11.756;2023-02-28T00:49:55;3.00;63.90
55313;DHT22;46892;45.668;11.756;2023-02-28T00:52:20;3.00;64.20
55313;DHT22;46892;45.668;11.756;2023-02-28T00:54:47;3.00;64.20
55313;DHT22;46892;45.668;11.756;2023-02-28T00:57:12;3.00;63.30
55313;DHT22;46892;45.668;11.756;2023-02-28T00:59:38;3.00;63.10
55313;DHT22;46892;45.668;11.756;2023-02-28T01:02:04;2.90;62.70
55313;DHT22;46892;45.668;11.756;2023-02-28T01:04:29;2.80;63.20
55313;DHT22;46892;45.668;11.756;2023-02-28T01:06:55;2.90;63.50
55313;DHT22;46892;45.668;11.756;2023-02-28T01:09:21;2.80;63.30
55313;DHT22;46892;45.668;11.756;2023-02-28T01:11:46;2.90;63.60
55313;DHT22;46892;45.668;11.756;2023-02-28T01:14:14;2.90;64.00
55313;DHT22;46892;45.668;11.756;2023-02-28T01:16:40;2.90;63.50
55313;DHT22;46892;45.668;11.756;2023-02-28T01:19:06;2.90;63.40
55313;DHT22;46892;45.668;11.756;2023-02-28T01:21:31;2.80;62.80
55313;DHT22;46892;45.668;11.756;2023-02-28T01:23:57;2.80;62.80
55313;DHT22;46892;45.668;11.756;2023-02-28T01:26:24;2.80;63.30
55313;DHT22;46892;45.668;11.756;2023-02-28T01:28:50;2.60;63.70
55313;DHT22;46892;45.668;11.756;2023-02-28T01:31:17;2.60;64.00
55313;DHT22;46892;45.668;11.756;2023-02-28T01:33:44;2.60;64.50
55313;DHT22;46892;45.668;11.756;2023-02-28T01:36:21;2.50;64.20
55313;DHT22;46892;45.668;11.756;2023-02-28T01:38:47;2.50;64.90
55313;DHT22;46892;45.668;11.756;2023-02-28T01:41:25;2.50;64.70
55313;DHT22;46892;45.668;11.756;2023-02-28T01:46:25;2.70;64.30
55313;DHT22;46892;45.668;11.756;2023-02-28T01:49:19;2.80;63.80
55313;DHT22;46892;45.668;11.756;2023-02-28T01:51:48;2.70;63.60
55313;DHT22;46892;45.668;11.756;2023-02-28T01:54:22;2.60;63.80
55313;DHT22;46892;45.668;11.756;2023-02-28T01:56:57;2.70;63.70
55313;DHT22;46892;45.668;11.756;2023-02-28T01:59:35;2.80;64.10
55313;DHT22;46892;45.668;11.756;2023-02-28T02:02:04;2.80;64.70
55313;DHT22;46892;45.668;11.756;2023-02-28T02:04:37;2.70;64.60
55313;DHT22;46892;45.668;11.756;2023-02-28T02:07:04;2.80;64.80
55313;DHT22;46892;45.668;11.756;2023-02-28T02:09:30;2.70;64.80
55313;DHT22;46892;45.668;11.756;2023-02-28T02:11:56;2.70;64.80
55313;DHT22;46892;45.668;11.756;2023-02-28T02:14:43;2.80;64.90
55313;DHT22;46892;45.668;11.756;2023-02-28T02:36:24;2.90;63.20
55313;DHT22;46892;45.668;11.756;2023-02-28T02:40:03;3.00;62.90
55313;DHT22;46892;45.668;11.756;2023-02-28T02:42:11;3.00;62.80
55313;DHT22;46892;45.668;11.756;2023-02-28T02:45:27;2.90;62.80
55313;DHT22;46892;45.668;11.756;2023-02-28T02:47:51;3.00;62.50
55313;DHT22;46892;45.668;11.756;2023-02-28T02:50:26;3.00;62.50
55313;DHT22;46892;45.668;11.756;2023-02-28T02:52:56;3.00;62.60
55313;DHT22;46892;45.668;11.756;2023-02-28T02:55:23;3.00;62.60
55313;DHT22;46892;45.668;11.756;2023-02-28T02:57:59;2.90;62.40
55313;DHT22;46892;45.668;11.756;2023-02-28T03:00:32;2.90;62.40
55313;DHT22;46892;45.668;11.756;2023-02-28T03:03:01;2.90;63.10
55313;DHT22;46892;45.668;11.756;2023-02-28T03:05:33;2.90;62.90
55313;DHT22;46892;45.668;11.756;2023-02-28T03:07:59;2.90;63.10
55313;DHT22;46892;45.668;11.756;2023-02-28T03:11:04;3.00;63.10
55313;DHT22;46892;45.668;11.756;2023-02-28T03:16:23;3.00;62.60
55313;DHT22;46892;45.668;11.756;2023-02-28T03:21:41;3.10;63.00
55313;DHT22;46892;45.668;11.756;2023-02-28T03:24:23;3.10;63.00
55313;DHT22;46892;45.668;11.756;2023-02-28T03:26:58;3.10;63.40
55313;DHT22;46892;45.668;11.756;2023-02-28T03:29:33;3.10;63.70
55313;DHT22;46892;45.668;11.756;2023-02-28T03:32:11;3.10;64.10
55313;DHT22;46892;45.668;11.756;2023-02-28T03:34:56;3.20;63.70
55313;DHT22;46892;45.668;11.756;2023-02-28T03:37:25;3.20;62.50
55313;DHT22;46892;45.668;11.756;2023-02-28T03:40:08;3.20;62.50
55313;DHT22;46892;45.668;11.756;2023-02-28T03:42:36;3.30;62.30
55313;DHT22;46892;45.668;11.756;2023-02-28T03:45:13;3.20;61.60
55313;DHT22;46892;45.668;11.756;2023-02-28T03:47:53;3.50;61.40
55313;DHT22;46892;45.668;11.756;2023-02-28T03:50:24;3.70;61.10
55313;DHT22;46892;45.668;11.756;2023-02-28T03:52:56;3.70;61.60
55313;DHT22;46892;45.668;11.756;2023-02-28T03:55:29;3.70;60.80
55313;DHT22;46892;45.668;11.756;2023-02-28T03:58:15;3.60;61.50
55313;DHT22;46892;45.668;11.756;2023-02-28T04:00:49;3.60;62.10
55313;DHT22;46892;45.668;11.756;2023-02-28T04:03:15;3.50;60.90
55313;DHT22;46892;45.668;11.756;2023-02-28T04:05:51;3.60;60.60
55313;DHT22;46892;45.668;11.756;2023-02-28T04:08:18;3.60;60.30
55313;DHT22;46892;45.668;11.756;2023-02-28T04:10:47;3.60;60.60
55313;DHT22;46892;45.668;11.756;2023-02-28T04:13:13;3.70;60.40
55313;DHT22;46892;45.668;11.756;2023-02-28T04:15:39;3.70;61.40
55313;DHT22;46892;45.668;11.756;2023-02-28T04:18:05;3.60;62.10
55313;DHT22;46892;45.668;11.756;2023-02-28T04:20:31;3.60;61.70
55313;DHT22;46892;45.668;11.756;2023-02-28T04:22:57;3.60;60.60
55313;DHT22;46892;45.668;11.756;2023-02-28T04:25:22;3.70;60.90
55313;DHT22;46892;45.668;11.756;2023-02-28T04:27:48;3.60;61.20
55313;DHT22;46892;45.668;11.756;2023-02-28T04:30:14;3.50;61.10
55313;DHT22;46892;45.668;11.756;2023-02-28T04:32:39;3.40;61.70
55313;DHT22;46892;45.668;11.756;2023-02-28T04:35:05;3.30;61.90
55313;DHT22;46892;45.668;11.756;2023-02-28T04:37:31;3.30;62.50
55313;DHT22;46892;45.668;11.756;2023-02-28T04:40:00;3.20;62.80
55313;DHT22;46892;45.668;11.756;2023-02-28T04:42:26;3.40;62.30
55313;DHT22;46892;45.668;11.756;2023-02-28T04:44:52;3.40;62.90
55313;DHT22;46892;45.668;11.756;2023-02-28T04:47:17;3.30;62.70
55313;DHT22;46892;45.668;11.756;2023-02-28T04:49:43;3.30;63.30
55313;DHT22;46892;45.668;11.756;2023-02-28T04:52:09;3.30;63.30
55313;DHT22;46892;45.668;11.756;2023-02-28T04:54:35;3.30;63.60
55313;DHT22;46892;45.668;11.756;2023-02-28T04:57:03;3.30;63.00
55313;DHT22;46892;45.668;11.756;2023-02-28T04:59:29;3.30;63.50
55313;DHT22;46892;45.668;11.756;2023-02-28T05:01:55;3.30;62.90
55313;DHT22;46892;45.668;11.756;2023-02-28T05:04:20;3.30;63.30
55313;DHT22;46892;45.668;11.756;2023-02-28T05:06:46;3.30;63.20
55313;DHT22;46892;45.668;11.756;2023-02-28T05:09:12;3.30;63.00
55313;DHT22;46892;45.668;11.756;2023-02-28T05:11:38;3.30;63.30
55313;DHT22;46892;45.668;11.756;2023-02-28T05:14:10;3.20;63.40
55313;DHT22;46892;45.668;11.756;2023-02-28T05:16:36;3.20;63.30
55313;DHT22;46892;45.668;11.756;2023-02-28T05:19:02;3.20;63.00
55313;DHT22;46892;45.668;11.756;2023-02-28T05:21:37;3.20;63.00
55313;DHT22;46892;45.668;11.756;2023-02-28T05:24:08;3.20;63.10
55313;DHT22;46892;45.668;11.756;2023-02-28T05:26:36;3.20;63.10
55313;DHT22;46892;45.668;11.756;2023-02-28T05:29:02;3.20;63.30
55313;DHT22;46892;45.668;11.756;2023-02-28T05:31:28;3.10;63.60
55313;DHT22;46892;45.668;11.756;2023-02-28T05:33:54;3.00;63.80
55313;DHT22;46892;45.668;11.756;2023-02-28T05:36:20;3.00;63.90
55313;DHT22;46892;45.668;11.756;2023-02-28T05:38:47;2.90;64.00
55313;DHT22;46892;45.668;11.756;2023-02-28T05:41:13;2.90;64.00
55313;DHT22;46892;45.668;11.756;2023-02-28T05:43:39;2.90;64.00
55313;DHT22;46892;45.668;11.756;2023-02-28T05:46:06;2.80;64.10
55313;DHT22;46892;45.668;11.756;2023-02-28T05:48:33;2.90;64.00
55313;DHT22;46892;45.668;11.756;2023-02-28T05:50:58;2.80;63.90
55313;DHT22;46892;45.668;11.756;2023-02-28T05:53:24;2.80;63.90
55313;DHT22;46892;45.668;11.756;2023-02-28T05:55:50;2.80;64.10
55313;DHT22;46892;45.668;11.756;2023-02-28T05:58:15;2.80;64.30
55313;DHT22;46892;45.668;11.756;2023-02-28T06:00:41;2.80;64.50
55313;DHT22;46892;45.668;11.756;2023-02-28T06:03:07;2.80;64.70
55313;DHT22;46892;45.668;11.756;2023-02-28T06:05:32;2.80;64.80
55313;DHT22;46892;45.668;11.756;2023-02-28T06:07:58;2.70;64.70
55313;DHT22;46892;45.668;11.756;2023-02-28T06:10:24;2.80;64.80
55313;DHT22;46892;45.668;11.756;2023-02-28T06:12:49;2.80;64.30
55313;DHT22;46892;45.668;11.756;2023-02-28T06:15:16;2.90;64.30
55313;DHT22;46892;45.668;11.756;2023-02-28T06:17:43;3.10;64.20
55313;DHT22;46892;45.668;11.756;2023-02-28T06:20:09;3.40;63.80
55313;DHT22;46892;45.668;11.756;2023-02-28T06:22:36;3.70;62.50
55313;DHT22;46892;45.668;11.756;2023-02-28T06:25:03;4.00;61.90
55313;DHT22;46892;45.668;11.756;2023-02-28T06:27:30;4.30;60.30
55313;DHT22;46892;45.668;11.756;2023-02-28T06:29:55;4.20;60.80
55313;DHT22;46892;45.668;11.756;2023-02-28T06:32:21;4.00;61.40
55313;DHT22;46892;45.668;11.756;2023-02-28T06:34:47;3.90;61.60
55313;DHT22;46892;45.668;11.756;2023-02-28T06:37:13;3.80;62.10
55313;DHT22;46892;45.668;11.756;2023-02-28T06:39:39;3.80;62.40
55313;DHT22;46892;45.668;11.756;2023-02-28T06:42:05;3.70;62.70
55313;DHT22;46892;45.668;11.756;2023-02-28T06:44:30;3.60;63.10
55313;DHT22;46892;45.668;11.756;2023-02-28T06:47:01;3.70;62.70
55313;DHT22;46892;45.668;11.756;2023-02-28T06:49:33;3.80;62.60
55313;DHT22;46892;45.668;11.756;2023-02-28T06:51:59;4.00;62.20
55313;DHT22;46892;45.668;11.756;2023-02-28T06:54:25;4.40;61.20
55313;DHT22;46892;45.668;11.756;2023-02-28T06:56:50;4.80;59.80
55313;DHT22;46892;45.668;11.756;2023-02-28T06:59:17;5.10;58.90
55313;DHT22;46892;45.668;11.756;2023-02-28T07:01:43;5.40;57.40
55313;DHT22;46892;45.668;11.756;2023-02-28T07:04:09;5.80;57.90
55313;DHT22;46892;45.668;11.756;2023-02-28T07:06:34;6.10;56.70
55313;DHT22;46892;45.668;11.756;2023-02-28T07:09:00;6.20;55.50
55313;DHT22;46892;45.668;11.756;2023-02-28T07:11:27;6.30;54.50
55313;DHT22;46892;45.668;11.756;2023-02-28T07:13:54;6.30;54.60
55313;DHT22;46892;45.668;11.756;2023-02-28T07:16:20;6.30;56.00
55313;DHT22;46892;45.668;11.756;2023-02-28T07:18:46;6.40;55.10
55313;DHT22;46892;45.668;11.756;2023-02-28T07:21:12;6.70;55.10
55313;DHT22;46892;45.668;11.756;2023-02-28T07:23:38;6.80;54.10
55313;DHT22;46892;45.668;11.756;2023-02-28T07:26:05;7.20;54.00
55313;DHT22;46892;45.668;11.756;2023-02-28T07:28:31;7.20;51.60
55313;DHT22;46892;45.668;11.756;2023-02-28T07:30:56;7.30;52.00
55313;DHT22;46892;45.668;11.756;2023-02-28T07:33:22;7.40;52.40
55313;DHT22;46892;45.668;11.756;2023-02-28T07:35:49;7.60;50.70
55313;DHT22;46892;45.668;11.756;2023-02-28T07:38:15;7.70;50.90
55313;DHT22;46892;45.668;11.756;2023-02-28T07:40:41;7.60;49.20
55313;DHT22;46892;45.668;11.756;2023-02-28T07:43:07;7.30;50.60
55313;DHT22;46892;45.668;11.756;2023-02-28T07:45:32;7.40;50.40
55313;DHT22;46892;45.668;11.756;2023-02-28T07:48:00;7.30;50.10
55313;DHT22;46892;45.668;11.756;2023-02-28T07:50:26;7.20;51.80
55313;DHT22;46892;45.668;11.756;2023-02-28T07:52:54;7.30;50.00
55313;DHT22;46892;45.668;11.756;2023-02-28T07:55:20;7.10;49.90
55313;DHT22;46892;45.668;11.756;2023-02-28T07:57:45;7.00;51.80
55313;DHT22;46892;45.668;11.756;2023-02-28T08:00:12;7.00;51.50
55313;DHT22;46892;45.668;11.756;2023-02-28T08:02:38;6.90;51.80
55313;DHT22;46892;45.668;11.756;2023-02-28T08:05:05;7.00;51.90
55313;DHT22;46892;45.668;11.756;2023-02-28T08:07:31;7.00;50.40
55313;DHT22;46892;45.668;11.756;2023-02-28T08:09:57;6.90;50.50
55313;DHT22;46892;45.668;11.756;2023-02-28T08:12:23;6.70;51.00
55313;DHT22;46892;45.668;11.756;2023-02-28T08:14:49;6.70;52.10
55313;DHT22;46892;45.668;11.756;2023-02-28T08:17:14;6.80;51.20
55313;DHT22;46892;45.668;11.756;2023-02-28T08:19:40;6.80;51.20
55313;DHT22;46892;45.668;11.756;2023-02-28T08:22:06;6.90;50.60
55313;DHT22;46892;45.668;11.756;2023-02-28T08:24:31;7.10;52.40
55313;DHT22;46892;45.668;11.756;2023-02-28T08:26:57;7.10;50.50
55313;DHT22;46892;45.668;11.756;2023-02-28T08:29:23;7.10;50.40
55313;DHT22;46892;45.668;11.756;2023-02-28T08:31:48;7.20;51.40
55313;DHT22;46892;45.668;11.756;2023-02-28T08:34:15;7.20;50.00
55313;DHT22;46892;45.668;11.756;2023-02-28T08:36:41;7.30;51.20
55313;DHT22;46892;45.668;11.756;2023-02-28T08:39:10;7.50;50.60
55313;DHT22;46892;45.668;11.756;2023-02-28T08:41:35;7.50;49.30
55313;DHT22;46892;45.668;11.756;2023-02-28T08:44:02;7.60;50.40
55313;DHT22;46892;45.668;11.756;2023-02-28T08:46:28;7.60;49.70
55313;DHT22;46892;45.668;11.756;2023-02-28T08:48:56;7.60;49.30
55313;DHT22;46892;45.668;11.756;2023-02-28T08:51:24;7.60;50.00
55313;DHT22;46892;45.668;11.756;2023-02-28T08:53:54;7.40;49.40
55313;DHT22;46892;45.668;11.756;2023-02-28T08:56:21;7.30;50.00
55313;DHT22;46892;45.668;11.756;2023-02-28T08:58:48;7.20;50.40
55313;DHT22;46892;45.668;11.756;2023-02-28T09:01:19;7.30;50.60
55313;DHT22;46892;45.668;11.756;2023-02-28T09:03:46;7.30;50.10
55313;DHT22;46892;45.668;11.756;2023-02-28T09:06:13;7.30;50.90
55313;DHT22;46892;45.668;11.756;2023-02-28T09:08:40;7.40;51.10
55313;DHT22;46892;45.668;11.756;2023-02-28T09:11:06;7.50;52.00
55313;DHT22;46892;45.668;11.756;2023-02-28T09:13:32;7.50;49.90
55313;DHT22;46892;45.668;11.756;2023-02-28T09:15:59;7.60;49.50
55313;DHT22;46892;45.668;11.756;2023-02-28T09:18:25;7.60;49.70
55313;DHT22;46892;45.668;11.756;2023-02-28T09:20:51;7.60;49.90
55313;DHT22;46892;45.668;11.756;2023-02-28T09:23:17;7.80;51.20
55313;DHT22;46892;45.668;11.756;2023-02-28T09:25:48;8.00;49.20
55313;DHT22;46892;45.668;11.756;2023-02-28T09:28:14;7.90;48.80
55313;DHT22;46892;45.668;11.756;2023-02-28T09:30:45;8.00;49.10
55313;DHT22;46892;45.668;11.756;2023-02-28T09:33:11;8.00;47.90
55313;DHT22;46892;45.668;11.756;2023-02-28T09:35:37;8.00;49.90
55313;DHT22;46892;45.668;11.756;2023-02-28T09:38:04;7.90;48.80
55313;DHT22;46892;45.668;11.756;2023-02-28T09:40:30;8.00;49.50
55313;DHT22;46892;45.668;11.756;2023-02-28T09:42:58;8.00;48.00
55313;DHT22;46892;45.668;11.756;2023-02-28T09:45:35;8.00;48.80
55313;DHT22;46892;45.668;11.756;2023-02-28T09:48:10;8.00;48.70
55313;DHT22;46892;45.668;11.756;2023-02-28T09:50:45;8.10;47.50
55313;DHT22;46892;45.668;11.756;2023-02-28T09:53:33;8.00;49.80
55313;DHT22;46892;45.668;11.756;2023-02-28T09:56:09;8.00;47.70
55313;DHT22;46892;45.668;11.756;2023-02-28T09:58:58;8.10;50.60
55313;DHT22;46892;45.668;11.756;2023-02-28T10:01:35;8.10;49.20
55313;DHT22;46892;45.668;11.756;2023-02-28T10:04:16;8.20;48.60
55313;DHT22;46892;45.668;11.756;2023-02-28T10:06:49;8.30;50.20
55313;DHT22;46892;45.668;11.756;2023-02-28T10:09:27;8.50;48.10
55313;DHT22;46892;45.668;11.756;2023-02-28T10:12:00;8.50;48.70
55313;DHT22;46892;45.668;11.756;2023-02-28T10:14:29;8.50;47.50
55313;DHT22;46892;45.668;11.756;2023-02-28T10:17:11;8.50;47.40
55313;DHT22;46892;45.668;11.756;2023-02-28T10:20:10;8.50;47.60
55313;DHT22;46892;45.668;11.756;2023-02-28T10:23:19;8.60;48.40
55313;DHT22;46892;45.668;11.756;2023-02-28T10:25:52;8.60;47.00
55313;DHT22;46892;45.668;11.756;2023-02-28T10:28:19;8.60;47.70
55313;DHT22;46892;45.668;11.756;2023-02-28T10:30:50;8.70;48.40
55313;DHT22;46892;45.668;11.756;2023-02-28T10:33:33;8.70;47.00
55313;DHT22;46892;45.668;11.756;2023-02-28T10:36:00;8.80;47.50
55313;DHT22;46892;45.668;11.756;2023-02-28T10:38:39;8.90;46.90
55313;DHT22;46892;45.668;11.756;2023-02-28T10:43:32;8.80;48.20
55313;DHT22;46892;45.668;11.756;2023-02-28T10:49:06;9.10;48.60
55313;DHT22;46892;45.668;11.756;2023-02-28T10:51:39;9.20;46.70
55313;DHT22;46892;45.668;11.756;2023-02-28T10:54:05;9.20;45.80
55313;DHT22;46892;45.668;11.756;2023-02-28T10:56:39;9.10;45.90
55313;DHT22;46892;45.668;11.756;2023-02-28T11:01:39;9.10;47.20
55313;DHT22;46892;45.668;11.756;2023-02-28T11:07:24;9.20;46.20
55313;DHT22;46892;45.668;11.756;2023-02-28T11:09:52;9.30;47.70
55313;DHT22;46892;45.668;11.756;2023-02-28T11:14:52;9.30;46.90
55313;DHT22;46892;45.668;11.756;2023-02-28T11:17:30;9.50;46.70
55313;DHT22;46892;45.668;11.756;2023-02-28T11:20:04;9.50;45.40
55313;DHT22;46892;45.668;11.756;2023-02-28T11:22:35;9.40;47.30
55313;DHT22;46892;45.668;11.756;2023-02-28T11:25:09;9.50;47.40
55313;DHT22;46892;45.668;11.756;2023-02-28T11:27:59;9.50;45.90
55313;DHT22;46892;45.668;11.756;2023-02-28T11:32:54;9.50;44.70
55313;DHT22;46892;45.668;11.756;2023-02-28T11:35:33;9.60;46.00
55313;DHT22;46892;45.668;11.756;2023-02-28T11:38:02;9.60;45.90
55313;DHT22;46892;45.668;11.756;2023-02-28T11:48:50;9.80;46.00
55313;DHT22;46892;45.668;11.756;2023-02-28T11:51:28;10.00;45.40
55313;DHT22;46892;45.668;11.756;2023-02-28T11:57:03;10.10;46.20
55313;DHT22;46892;45.668;11.756;2023-02-28T12:02:26;10.10;45.20
55313;DHT22;46892;45.668;11.756;2023-02-28T12:07:53;10.20;44.10
55313;DHT22;46892;45.668;11.756;2023-02-28T12:10:30;10.10;43.90
55313;DHT22;46892;45.668;11.756;2023-02-28T12:26:46;10.20;45.30
55313;DHT22;46892;45.668;11.756;2023-02-28T12:29:23;10.30;44.80
55313;DHT22;46892;45.668;11.756;2023-02-28T12:32:21;10.20;44.70
55313;DHT22;46892;45.668;11.756;2023-02-28T12:34:56;10.40;45.90
55313;DHT22;46892;45.668;11.756;2023-02-28T12:40:14;10.30;46.00
55313;DHT22;46892;45.668;11.756;2023-02-28T12:42:48;10.30;43.90
55313;DHT22;46892;45.668;11.756;2023-02-28T12:45:22;10.30;45.30
55313;DHT22;46892;45.668;11.756;2023-02-28T12:48:00;10.50;46.50
55313;DHT22;46892;45.668;11.756;2023-02-28T12:50:28;10.60;44.10
55313;DHT22;46892;45.668;11.756;2023-02-28T12:53:22;10.70;45.60
55313;DHT22;46892;45.668;11.756;2023-02-28T12:56:33;10.50;44.50
55313;DHT22;46892;45.668;11.756;2023-02-28T12:59:53;10.50;44.50
55313;DHT22;46892;45.668;11.756;2023-02-28T13:10:58;10.60;44.90
55313;DHT22;46892;45.668;11.756;2023-02-28T13:13:26;10.50;45.10
55313;DHT22;46892;45.668;11.756;2023-02-28T13:18:43;10.60;44.80
55313;DHT22;46892;45.668;11.756;2023-02-28T13:21:26;10.60;44.80
55313;DHT22;46892;45.668;11.756;2023-02-28T13:34:27;10.90;45.30
55313;DHT22;46892;45.668;11.756;2023-02-28T13:37:35;10.80;44.40
55313;DHT22;46892;45.668;11.756;2023-02-28T13:40:29;10.70;44.40
55313;DHT22;46892;45.668;11.756;2023-02-28T13:42:56;10.70;46.50
55313;DHT22;46892;45.668;11.756;2023-02-28T13:45:28;10.70;46.30
55313;DHT22;46892;45.668;11.756;2023-02-28T13:48:16;10.70;45.10
55313;DHT22;46892;45.668;11.756;2023-02-28T13:50:43;10.60;44.90
55313;DHT22;46892;45.668;11.756;2023-02-28T13:58:55;10.70;46.10
55313;DHT22;46892;45.668;11.756;2023-02-28T14:07:02;10.70;44.80
55313;DHT22;46892;45.668;11.756;2023-02-28T14:11:56;10.60;46.70
55313;DHT22;46892;45.668;11.756;2023-02-28T14:17:12;10.70;46.30
55313;DHT22;46892;45.668;11.756;2023-02-28T14:19:39;10.70;45.50
55313;DHT22;46892;45.668;11.756;2023-02-28T14:25:04;10.70;44.70
55313;DHT22;46892;45.668;11.756;2023-02-28T14:28:05;10.70;45.60
55313;DHT22;46892;45.668;11.756;2023-02-28T14:31:13;10.70;45.50
55313;DHT22;46892;45.668;11.756;2023-02-28T14:36:40;10.70;45.40
55313;DHT22;46892;45.668;11.756;2023-02-28T14:39:13;10.70;44.50
55313;DHT22;46892;45.668;11.756;2023-02-28T14:41:41;10.70;47.40
55313;DHT22;46892;45.668;11.756;2023-02-28T14:44:22;10.70;45.20
55313;DHT22;46892;45.668;11.756;2023-02-28T14:46:53;10.70;47.20
55313;DHT22;46892;45.668;11.756;2023-02-28T14:49:43;10.70;45.40
55313;DHT22;46892;45.668;11.756;2023-02-28T14:52:27;10.60;46.30
55313;DHT22;46892;45.668;11.756;2023-02-28T14:55:04;10.60;46.00
55313;DHT22;46892;45.668;11.756;2023-02-28T14:57:33;10.60;45.10
55313;DHT22;46892;45.668;11.756;2023-02-28T15:00:25;10.40;45.00
55313;DHT22;46892;45.668;11.756;2023-02-28T15:02:51;10.40;46.30
55313;DHT22;46892;45.668;11.756;2023-02-28T15:08:14;10.40;45.70
55313;DHT22;46892;45.668;11.756;2023-02-28T15:10:51;10.40;46.80
55313;DHT22;46892;45.668;11.756;2023-02-28T15:13:17;10.40;46.30
55313;DHT22;46892;45.668;11.756;2023-02-28T15:15:56;10.30;45.90
55313;DHT22;46892;45.668;11.756;2023-02-28T15:20:49;10.30;47.10
55313;DHT22;46892;45.668;11.756;2023-02-28T15:23:16;10.30;46.30
55313;DHT22;46892;45.668;11.756;2023-02-28T15:25:44;10.30;45.90
55313;DHT22;46892;45.668;11.756;2023-02-28T15:28:15;10.30;47.10
55313;DHT22;46892;45.668;11.756;2023-02-28T15:30:54;10.30;46.30
55313;DHT22;46892;45.668;11.756;2023-02-28T15:33:23;10.30;46.90
55313;DHT22;46892;45.668;11.756;2023-02-28T15:35:50;10.20;46.00
55313;DHT22;46892;45.668;11.756;2023-02-28T15:40:54;10.20;47.20
55313;DHT22;46892;45.668;11.756;2023-02-28T15:46:16;10.10;46.50
55313;DHT22;46892;45.668;11.756;2023-02-28T15:51:22;10.00;46.90
55313;DHT22;46892;45.668;11.756;2023-02-28T15:53:52;10.00;47.50
55313;DHT22;46892;45.668;11.756;2023-02-28T15:58:48;10.00;46.60
55313;DHT22;46892;45.668;11.756;2023-02-28T16:01:29;9.90;46.70
55313;DHT22;46892;45.668;11.756;2023-02-28T16:03:59;9.90;47.20
55313;DHT22;46892;45.668;11.756;2023-02-28T16:06:33;9.90;47.40
55313;DHT22;46892;45.668;11.756;2023-02-28T16:08:59;9.90;47.90
55313;DHT22;46892;45.668;11.756;2023-02-28T16:11:25;9.80;47.80
55313;DHT22;46892;45.668;11.756;2023-02-28T16:13:52;9.80;48.30
55313;DHT22;46892;45.668;11.756;2023-02-28T16:16:20;9.80;47.50
55313;DHT22;46892;45.668;11.756;2023-02-28T16:18:47;9.80;47.60
55313;DHT22;46892;45.668;11.756;2023-02-28T16:21:12;9.70;48.10
55313;DHT22;46892;45.668;11.756;2023-02-28T16:23:38;9.70;48.00
55313;DHT22;46892;45.668;11.756;2023-02-28T16:26:05;9.70;48.70
55313;DHT22;46892;45.668;11.756;2023-02-28T16:28:34;9.60;49.30
55313;DHT22;46892;45.668;11.756;2023-02-28T16:31:02;9.60;48.70
55313;DHT22;46892;45.668;11.756;2023-02-28T16:33:30;9.70;49.50
55313;DHT22;46892;45.668;11.756;2023-02-28T16:35:55;9.80;49.60
55313;DHT22;46892;45.668;11.756;2023-02-28T16:38:21;9.80;48.00
55313;DHT22;46892;45.668;11.756;2023-02-28T16:40:49;9.70;48.80
55313;DHT22;46892;45.668;11.756;2023-02-28T16:43:22;9.80;48.60
55313;DHT22;46892;45.668;11.756;2023-02-28T16:45:48;9.60;48.30
55313;DHT22;46892;45.668;11.756;2023-02-28T16:48:19;9.50;49.40
55313;DHT22;46892;45.668;11.756;2023-02-28T16:50:45;9.30;49.50
55313;DHT22;46892;45.668;11.756;2023-02-28T16:53:10;9.10;50.30
55313;DHT22;46892;45.668;11.756;2023-02-28T16:55:36;8.90;50.40
55313;DHT22;46892;45.668;11.756;2023-02-28T16:58:03;8.80;51.00
55313;DHT22;46892;45.668;11.756;2023-02-28T17:00:31;8.50;53.90
55313;DHT22;46892;45.668;11.756;2023-02-28T17:02:57;8.40;56.10
55313;DHT22;46892;45.668;11.756;2023-02-28T17:05:25;8.40;56.80
55313;DHT22;46892;45.668;11.756;2023-02-28T17:07:51;8.30;58.00
55313;DHT22;46892;45.668;11.756;2023-02-28T17:10:25;8.30;58.10
55313;DHT22;46892;45.668;11.756;2023-02-28T17:12:51;8.20;58.50
55313;DHT22;46892;45.668;11.756;2023-02-28T17:15:19;8.20;58.60
55313;DHT22;46892;45.668;11.756;2023-02-28T17:17:46;8.20;59.20
55313;DHT22;46892;45.668;11.756;2023-02-28T17:20:17;8.00;59.70
55313;DHT22;46892;45.668;11.756;2023-02-28T17:22:43;7.80;60.50
55313;DHT22;46892;45.668;11.756;2023-02-28T17:25:10;7.80;61.10
55313;DHT22;46892;45.668;11.756;2023-02-28T17:27:36;7.60;61.30
55313;DHT22;46892;45.668;11.756;2023-02-28T17:30:25;7.30;62.10
55313;DHT22;46892;45.668;11.756;2023-02-28T17:32:49;7.20;62.50
55313;DHT22;46892;45.668;11.756;2023-02-28T17:35:15;7.00;63.20
55313;DHT22;46892;45.668;11.756;2023-02-28T17:37:41;7.00;63.40
55313;DHT22;46892;45.668;11.756;2023-02-28T17:40:14;7.00;63.20
55313;DHT22;46892;45.668;11.756;2023-02-28T17:42:40;6.90;63.30
55313;DHT22;46892;45.668;11.756;2023-02-28T17:45:06;6.90;63.80
55313;DHT22;46892;45.668;11.756;2023-02-28T17:47:32;6.90;63.60
55313;DHT22;46892;45.668;11.756;2023-02-28T17:49:57;6.80;63.60
55313;DHT22;46892;45.668;11.756;2023-02-28T17:52:23;6.80;63.60
55313;DHT22;46892;45.668;11.756;2023-02-28T17:54:50;6.60;64.00
55313;DHT22;46892;45.668;11.756;2023-02-28T17:57:16;6.60;64.30
55313;DHT22;46892;45.668;11.756;2023-02-28T17:59:42;6.50;64.50
55313;DHT22;46892;45.668;11.756;2023-02-28T18:02:14;6.40;64.80
55313;DHT22;46892;45.668;11.756;2023-02-28T18:04:40;6.30;64.90